To NAV CANADA Home Page Login to a new session Search on AWWS site Disclaimer Vers la page française équivalente Tips FAQ What's new on the site To the Forecasts and Observations / NOTAM section To "File a Flight Plan" website Publications and other links Update of the User's profile FIC Telephone Numbers My Weather Data Folder Route Weather Data Regional Weather Data Local Weather Data To the Forecasts and Observations / NOTAM section
Request Generated 08/22/2018 at 06:43:27 UTC . Weather information available at that time is displayed.


Go to a specific product

Save this request - Inactive

METAR/TAF

OTTAWA/GATINEAU/QC    

LWIS CYND 220600Z AUTO 13009KT 21/19 A2956=
LWIS CYND 220500Z AUTO 12006KT 20/19 A2960=
LWIS CYND 220400Z AUTO 11006KT 20/19 A2964=

*** REMARK        : Forecast period has ended; this was the last TAF issued
*** REMARQUE : La période de prévision est échue; ceci était le dernier TAF qui a été émis
TAF CYND 211738Z 2118/2201 08005KT P6SM BKN030 BKN070 TEMPO 2119/2121
P6SM -SHRA BKN020 OVC080
FM212100 10007KT P6SM -SHRA BKN025 OVC040 TEMPO 2121/2201 2SM
SHRA BR BKN008 OVC020 PROB30 2122/2201 VRB15G25KT 11/2SM TSRA BR
BKN005 OVC020CB
RMK NXT FCST WILL BE ISSUED AT 221245Z=

OTTAWA/MACDONALD-CARTIER INTL/ON    

METAR CYOW 220600Z CCA 16012G17KT 60SM -RA BKN020 OVC036 21/19 A2956 RMK SC6SC2 SLP010 DENSITY ALT 1600FT=
METAR CYOW 220600Z 16012G17KT 60SM BKN020 OVC036 21/19 A2956 RMK SC6SC2 SLP010 DENSITY ALT 1600FT=
METAR CYOW 220500Z 14011KT 10SM BKN032 OVC042 20/19 A2960 RMK SC6SC2 SLP025 DENSITY ALT 1500FT=
METAR CYOW 220400Z 14009KT 10SM BKN028 BKN065 OVC180 20/19 A2963 RMK SC5SC2AC1 SLP035 DENSITY ALT 1400FT=

TAF CYOW 220538Z 2206/2306 15012KT P6SM BKN030 OVC040 TEMPO 2206/2208
21/2SM SHRA BR FEW008 OVC020
FM220800 20010G20KT P6SM OVC030 TEMPO 2208/2212 5SM -SHRA BR
OVC020
BECMG 2210/2212 30017G27KT
FM221200 30017G27KT P6SM BKN030 TEMPO 2212/2215 FEW008 OVC020
FM222300 30010G20KT P6SM SCT040
FM230200 29008KT P6SM SKC
RMK NXT FCST BY 220900Z=


GRAPHICAL FA CLOUDS & WEATHER FORECASTS
To the Product Selector
Graphical FA gfacn33      

GRAPHICAL FA ICING, TURBULENCE & FREEZING LEVEL FORECASTS
To the Product Selector
Graphical FA gfacn33      

FDTEXT Low Level FD. Temperatures are not forecast for the 3,000-foot level.
To the Product Selector
STN YOW - OTTAWA. ONT for use 3000 6000 9000 12000 18000
FDCN01 CWAO FCST BASED ON 220000 DATA VALID 220600 05-09 1942 2251+13 2340+08 2236+03 2138-06
FDCN02 CWAO FCST BASED ON 220000 DATA VALID 221200 09-18 3024 2523+11 2427+07 2326+02 2330-09
FDCN03 CWAO FCST BASED ON 220000 DATA VALID 230000 18-05 3122 3426+06 3017+01 2921-04 2725-13



Your time UTC time
Weather data provided by Environment Canada and NAV CANADA